createdAt,value
2023-05-18T00:00:23.939Z,3.38
2023-05-18T00:01:57.026Z,1.50
2023-05-18T00:03:30.553Z,1.50
2023-05-18T00:05:02.787Z,1.70
2023-05-18T00:06:35.015Z,1.90
2023-05-18T00:08:08.367Z,1.67
2023-05-18T00:09:42.049Z,1.77
2023-05-18T00:11:14.211Z,1.70
2023-05-18T00:12:46.374Z,1.33
2023-05-18T00:14:18.725Z,1.50
2023-05-18T00:15:50.887Z,1.30
2023-05-18T00:17:23.166Z,1.20
2023-05-18T00:18:57.011Z,1.20
2023-05-18T00:20:29.941Z,1.35
2023-05-18T00:22:02.908Z,1.23
2023-05-18T00:23:36.104Z,1.48
2023-05-18T00:25:08.498Z,1.30
2023-05-18T00:26:42.206Z,1.30
2023-05-18T00:28:14.318Z,1.40
2023-05-18T00:29:46.619Z,1.30
2023-05-18T00:31:18.789Z,1.15
2023-05-18T00:32:51.168Z,1.33
2023-05-18T00:34:23.310Z,1.20
2023-05-18T00:35:57.770Z,1.60
2023-05-18T00:37:29.851Z,1.33
2023-05-18T00:39:02.107Z,1.40
2023-05-18T00:40:34.470Z,1.42
2023-05-18T00:42:06.731Z,1.30
2023-05-18T00:43:41.914Z,1.40
2023-05-18T00:45:14.006Z,1.40
2023-05-18T00:46:46.162Z,1.25
2023-05-18T00:48:18.450Z,1.58
2023-05-18T00:49:50.579Z,1.20
2023-05-18T00:51:23.798Z,1.38
2023-05-18T00:52:55.898Z,1.60
2023-05-18T00:54:28.237Z,1.48
2023-05-18T00:56:00.602Z,1.20
2023-05-18T00:57:34.054Z,1.58
2023-05-18T00:59:06.164Z,1.40
2023-05-18T01:02:43.215Z,1.50
2023-05-18T01:04:15.369Z,1.58
2023-05-18T01:05:56.257Z,1.60
2023-05-18T01:07:28.644Z,1.50
2023-05-18T01:09:03.037Z,1.90
2023-05-18T01:10:38.472Z,1.70
2023-05-18T01:12:15.900Z,1.83
2023-05-18T01:13:53.923Z,1.70
2023-05-18T01:15:39.138Z,1.60
2023-05-18T01:17:17.913Z,1.55
2023-05-18T01:19:20.309Z,2.10
2023-05-18T01:20:57.959Z,2.20
2023-05-18T01:22:39.408Z,1.83
2023-05-18T01:24:22.033Z,1.90
2023-05-18T01:25:54.261Z,2.05
2023-05-18T01:27:26.762Z,2.10
2023-05-18T01:29:01.226Z,2.22
2023-05-18T01:30:39.078Z,2.50
2023-05-18T01:32:11.327Z,2.40
2023-05-18T01:33:44.847Z,2.30
2023-05-18T01:36:49.880Z,2.42
2023-05-18T01:38:24.776Z,2.65
2023-05-18T01:39:57.014Z,2.15
2023-05-18T01:41:30.242Z,2.05
2023-05-18T01:43:09.258Z,2.08
2023-05-18T01:44:49.180Z,2.40
2023-05-18T01:46:43.182Z,1.98
2023-05-18T01:48:20.849Z,2.13
2023-05-18T01:49:59.584Z,1.80
2023-05-18T01:51:34.528Z,1.83
2023-05-18T01:53:15.275Z,1.98
2023-05-18T01:54:51.932Z,1.92
2023-05-18T01:56:24.367Z,2.00
2023-05-18T01:57:57.358Z,1.70
2023-05-18T01:59:29.973Z,1.98
2023-05-18T02:01:02.130Z,1.95
2023-05-18T02:02:34.485Z,2.22
2023-05-18T02:04:10.850Z,2.15
2023-05-18T02:05:43.351Z,2.33
2023-05-18T02:07:15.454Z,2.50
2023-05-18T02:08:47.813Z,2.40
2023-05-18T02:10:20.135Z,2.13
2023-05-18T02:11:52.337Z,2.40
2023-05-18T02:13:24.465Z,2.45
2023-05-18T02:14:58.845Z,2.10
2023-05-18T02:16:31.046Z,2.20
2023-05-18T02:18:03.363Z,2.10
2023-05-18T02:19:38.522Z,2.10
2023-05-18T02:21:10.651Z,2.03
2023-05-18T02:22:42.734Z,1.98
2023-05-18T02:24:14.871Z,2.08
2023-05-18T02:25:47.673Z,2.38
2023-05-18T02:27:19.867Z,2.00
2023-05-18T02:28:52.028Z,2.30
2023-05-18T02:30:24.200Z,2.33
2023-05-18T02:31:56.410Z,2.28
2023-05-18T02:33:40.306Z,2.13
2023-05-18T02:36:46.644Z,2.38
2023-05-18T02:38:18.746Z,2.40
2023-05-18T02:39:50.988Z,2.10
2023-05-18T02:41:23.697Z,2.00
2023-05-18T02:42:55.996Z,2.08
2023-05-18T02:44:28.256Z,2.47
2023-05-18T02:46:00.491Z,2.10
2023-05-18T02:47:32.756Z,2.33
2023-05-18T02:49:04.883Z,2.40
2023-05-18T02:50:39.264Z,2.38
2023-05-18T02:52:11.357Z,2.45
2023-05-18T02:53:44.581Z,2.42
2023-05-18T02:55:17.797Z,1.90
2023-05-18T02:56:49.886Z,2.00
2023-05-18T02:58:25.874Z,2.45
2023-05-18T02:59:57.968Z,2.60
2023-05-18T03:01:30.155Z,2.63
2023-05-18T03:03:03.301Z,2.42
2023-05-18T03:04:35.719Z,2.40
2023-05-18T03:06:09.592Z,2.40
2023-05-18T03:07:42.648Z,2.72
2023-05-18T03:09:16.208Z,2.88
2023-05-18T03:10:48.428Z,3.00
2023-05-18T03:12:20.733Z,2.70
2023-05-18T03:13:52.922Z,2.88
2023-05-18T03:15:25.105Z,3.08
2023-05-18T03:16:58.263Z,3.20
2023-05-18T03:18:30.440Z,2.88
2023-05-18T03:20:03.167Z,2.88
2023-05-18T03:21:36.862Z,3.13
2023-05-18T03:23:09.106Z,2.92
2023-05-18T03:24:41.303Z,3.97
2023-05-18T03:26:13.496Z,3.83
2023-05-18T03:27:45.602Z,4.25
2023-05-18T03:29:17.835Z,5.03
2023-05-18T03:30:50.061Z,5.03
2023-05-18T03:32:22.288Z,5.25
2023-05-18T03:33:54.411Z,4.60
2023-05-18T03:35:26.716Z,5.30
2023-05-18T03:36:59.077Z,6.60
2023-05-18T03:38:31.298Z,5.35
2023-05-18T03:40:11.446Z,5.80
2023-05-18T03:41:43.674Z,11.32
2023-05-18T03:43:15.886Z,11.70
2023-05-18T03:44:48.011Z,8.75
2023-05-18T03:46:20.185Z,11.60
2023-05-18T03:47:53.270Z,11.20
2023-05-18T03:49:25.453Z,8.60
2023-05-18T03:50:57.635Z,8.77
2023-05-18T03:52:30.336Z,10.13
2023-05-18T03:54:02.512Z,9.60
2023-05-18T03:55:34.650Z,9.18
2023-05-18T03:57:06.822Z,9.32
2023-05-18T03:58:38.980Z,9.15
2023-05-18T04:00:13.752Z,8.98
2023-05-18T04:01:48.900Z,9.50
2023-05-18T04:03:21.943Z,9.65
2023-05-18T04:04:55.354Z,9.48
2023-05-18T04:06:27.560Z,9.18
2023-05-18T04:07:59.705Z,9.93
2023-05-18T04:09:32.271Z,9.63
2023-05-18T04:11:05.174Z,9.30
2023-05-18T04:12:37.340Z,9.75
2023-05-18T04:14:09.587Z,9.02
2023-05-18T04:15:41.908Z,9.65
2023-05-18T04:17:14.077Z,9.77
2023-05-18T04:18:46.327Z,9.30
2023-05-18T04:20:19.022Z,9.85
2023-05-18T04:21:51.186Z,8.50
2023-05-18T04:23:23.709Z,9.07
2023-05-18T04:24:57.737Z,10.13
2023-05-18T04:26:30.213Z,9.30
2023-05-18T04:28:03.512Z,8.83
2023-05-18T04:29:39.527Z,8.38
2023-05-18T04:31:14.866Z,9.07
2023-05-18T04:32:47.492Z,9.48
2023-05-18T04:34:19.782Z,8.65
2023-05-18T04:36:05.279Z,9.02
2023-05-18T04:37:40.596Z,9.00
2023-05-18T04:39:13.004Z,9.77
2023-05-18T04:40:45.146Z,9.68
2023-05-18T04:42:18.884Z,9.82
2023-05-18T04:43:51.183Z,9.57
2023-05-18T04:45:23.382Z,11.57
2023-05-18T04:46:56.385Z,9.55
2023-05-18T04:48:29.737Z,10.07
2023-05-18T04:51:37.941Z,9.30
2023-05-18T04:53:12.677Z,8.80
2023-05-18T04:54:45.004Z,9.82
2023-05-18T04:56:17.996Z,9.25
2023-05-18T04:57:51.073Z,9.27
2023-05-18T04:59:26.738Z,9.80
2023-05-18T05:00:58.906Z,9.43
2023-05-18T05:02:31.308Z,9.48
2023-05-18T05:04:04.298Z,10.50
2023-05-18T05:05:36.638Z,9.25
2023-05-18T05:07:08.802Z,10.32
2023-05-18T05:08:40.949Z,10.60
2023-05-18T05:10:13.469Z,10.75
2023-05-18T05:11:50.184Z,11.35
2023-05-18T05:13:22.705Z,11.07
2023-05-18T05:14:55.197Z,10.65
2023-05-18T05:16:27.428Z,11.17
2023-05-18T05:17:59.671Z,11.63
2023-05-18T05:19:31.925Z,11.10
2023-05-18T05:21:04.256Z,10.45
2023-05-18T05:22:36.620Z,10.82
2023-05-18T05:24:08.901Z,11.25
2023-05-18T05:25:41.069Z,10.60
2023-05-18T05:27:13.310Z,11.20
2023-05-18T05:28:45.547Z,11.30
2023-05-18T05:30:17.646Z,10.90
2023-05-18T05:31:49.886Z,12.20
2023-05-18T05:33:22.075Z,11.60
2023-05-18T05:34:54.340Z,11.80
2023-05-18T05:36:26.592Z,11.20
2023-05-18T05:37:59.207Z,12.18
2023-05-18T05:39:31.508Z,12.27
2023-05-18T05:41:03.732Z,12.35
2023-05-18T05:42:36.116Z,12.80
2023-05-18T05:44:08.304Z,12.73
2023-05-18T05:45:40.458Z,13.43
2023-05-18T05:47:12.852Z,12.13
2023-05-18T05:48:45.111Z,13.38
2023-05-18T05:50:17.311Z,12.98
2023-05-18T05:51:49.502Z,13.48
2023-05-18T05:53:23.895Z,14.68
2023-05-18T05:54:56.641Z,13.50
2023-05-18T05:56:28.840Z,14.38
2023-05-18T05:58:00.986Z,14.18
2023-05-18T05:59:33.146Z,15.32
2023-05-18T06:01:05.328Z,14.60
2023-05-18T06:02:38.280Z,13.88
2023-05-18T06:04:12.965Z,14.20
2023-05-18T06:05:45.312Z,14.45
2023-05-18T06:07:18.148Z,14.50
2023-05-18T06:08:50.305Z,14.27
2023-05-18T06:10:22.374Z,15.50
2023-05-18T06:11:54.915Z,14.63
2023-05-18T06:13:27.099Z,14.35
2023-05-18T06:14:59.249Z,15.40
2023-05-18T06:18:03.361Z,14.38
2023-05-18T06:19:35.621Z,14.37
2023-05-18T06:21:07.850Z,14.25
2023-05-18T06:22:40.051Z,14.38
2023-05-18T06:24:12.246Z,15.25
2023-05-18T06:25:44.385Z,14.88
2023-05-18T06:27:17.358Z,15.27
2023-05-18T06:28:49.925Z,15.25
2023-05-18T06:30:22.171Z,15.57
2023-05-18T06:31:54.321Z,15.15
2023-05-18T06:33:26.917Z,14.80
2023-05-18T06:34:59.019Z,15.80
2023-05-18T06:36:32.390Z,15.27
2023-05-18T06:39:36.772Z,15.02
2023-05-18T06:41:09.044Z,15.93
2023-05-18T06:42:41.337Z,15.45
2023-05-18T06:44:13.553Z,15.52
2023-05-18T06:47:17.729Z,15.05
2023-05-18T06:48:50.107Z,15.50
2023-05-18T06:50:22.567Z,14.18
2023-05-18T06:51:54.721Z,14.57
2023-05-18T06:53:27.760Z,14.15
2023-05-18T06:55:01.676Z,15.15
2023-05-18T06:56:33.961Z,14.70
2023-05-18T06:58:06.127Z,15.70
2023-05-18T06:59:38.237Z,15.38
2023-05-18T07:01:11.342Z,15.00
2023-05-18T07:02:44.740Z,15.90
2023-05-18T07:04:18.230Z,14.32
2023-05-18T07:07:22.534Z,14.57
2023-05-18T07:08:57.231Z,14.57
2023-05-18T07:10:29.553Z,14.13
2023-05-18T07:12:01.768Z,14.05
2023-05-18T07:13:33.923Z,14.35
2023-05-18T07:16:38.613Z,15.38
2023-05-18T07:18:11.007Z,15.35
2023-05-18T07:19:43.192Z,15.13
2023-05-18T07:21:15.331Z,14.57
2023-05-18T07:22:47.566Z,15.55
2023-05-18T07:24:20.405Z,14.27
2023-05-18T07:25:52.660Z,13.85
2023-05-18T07:27:25.212Z,14.65
2023-05-18T07:28:58.407Z,15.93
2023-05-18T07:30:30.586Z,14.45
2023-05-18T07:32:02.878Z,14.88
2023-05-18T07:33:35.500Z,13.98
2023-05-18T07:35:07.902Z,15.23
2023-05-18T07:36:40.028Z,13.95
2023-05-18T07:38:12.238Z,14.13
2023-05-18T07:39:44.403Z,13.48
2023-05-18T07:41:16.543Z,13.07
2023-05-18T07:42:48.656Z,14.88
2023-05-18T07:44:20.833Z,13.45
2023-05-18T07:45:53.011Z,14.07
2023-05-18T07:47:25.280Z,14.10
2023-05-18T07:48:57.482Z,12.73
2023-05-18T07:50:30.020Z,13.50
2023-05-18T07:52:02.993Z,13.27
2023-05-18T07:53:35.357Z,13.75
2023-05-18T07:55:08.114Z,12.82
2023-05-18T07:56:41.054Z,13.82
2023-05-18T07:58:13.766Z,13.95
2023-05-18T07:59:46.083Z,13.18
2023-05-18T08:01:18.357Z,14.13
2023-05-18T08:02:50.608Z,13.45
2023-05-18T08:04:23.002Z,13.65
2023-05-18T08:05:55.282Z,13.25
2023-05-18T08:07:30.364Z,13.00
2023-05-18T08:09:02.589Z,13.68
2023-05-18T08:10:34.800Z,12.40
2023-05-18T08:12:07.315Z,13.13
2023-05-18T08:13:39.445Z,13.32
2023-05-18T08:15:12.452Z,12.60
2023-05-18T08:16:44.710Z,12.02
2023-05-18T08:18:16.912Z,13.57
2023-05-18T08:19:49.273Z,12.77
2023-05-18T08:21:21.609Z,11.50
2023-05-18T08:22:53.687Z,11.95
2023-05-18T08:24:25.813Z,11.85
2023-05-18T08:26:00.510Z,12.25
2023-05-18T08:27:32.717Z,11.93
2023-05-18T08:29:10.574Z,12.27
2023-05-18T08:30:43.037Z,10.65
2023-05-18T08:32:15.388Z,11.87
2023-05-18T08:33:48.745Z,11.90
2023-05-18T08:35:21.601Z,11.10
2023-05-18T08:36:53.801Z,12.63
2023-05-18T08:38:25.994Z,11.75
2023-05-18T08:40:00.111Z,12.10
2023-05-18T08:42:16.328Z,12.05
2023-05-18T08:43:59.763Z,11.50
2023-05-18T08:45:47.913Z,12.10
2023-05-18T08:47:26.357Z,11.05
2023-05-18T08:50:33.017Z,12.13
2023-05-18T08:52:06.468Z,11.45
2023-05-18T08:53:38.860Z,12.25
2023-05-18T08:55:12.706Z,11.02
2023-05-18T08:56:45.304Z,11.52
2023-05-18T08:58:20.731Z,11.63
2023-05-18T08:59:53.923Z,10.60
2023-05-18T09:01:29.704Z,11.05
2023-05-18T09:03:03.549Z,11.25
2023-05-18T09:04:35.896Z,12.18
2023-05-18T09:06:08.393Z,10.80
2023-05-18T09:07:42.590Z,10.50
2023-05-18T09:09:15.619Z,11.25
2023-05-18T09:10:49.465Z,9.90
2023-05-18T09:12:24.615Z,10.30
2023-05-18T09:13:56.979Z,9.70
2023-05-18T09:15:29.292Z,11.02
2023-05-18T09:17:01.647Z,10.60
2023-05-18T09:18:33.821Z,10.68
2023-05-18T09:20:06.835Z,10.23
2023-05-18T09:21:39.627Z,9.77
2023-05-18T09:25:02.259Z,10.20
2023-05-18T09:26:34.728Z,9.88
2023-05-18T09:28:07.120Z,9.43
2023-05-18T09:29:52.687Z,9.73
2023-05-18T09:31:25.103Z,9.93
2023-05-18T09:32:57.347Z,9.93
2023-05-18T09:34:40.389Z,8.38
2023-05-18T09:36:12.704Z,9.50
2023-05-18T09:37:45.222Z,9.30
2023-05-18T09:39:17.317Z,9.27
2023-05-18T09:40:50.813Z,9.15
2023-05-18T09:42:24.229Z,9.23
2023-05-18T09:43:56.610Z,8.90
2023-05-18T09:45:29.196Z,8.88
2023-05-18T09:47:02.437Z,8.32
2023-05-18T09:48:37.337Z,8.68
2023-05-18T09:50:10.144Z,8.52
2023-05-18T09:51:42.831Z,7.85
2023-05-18T09:53:15.302Z,7.65
2023-05-18T09:54:53.835Z,6.93
2023-05-18T09:56:27.620Z,8.45
2023-05-18T09:59:37.419Z,8.32
2023-05-18T10:01:09.844Z,8.20
2023-05-18T10:02:45.839Z,7.93
2023-05-18T10:04:20.536Z,8.40
2023-05-18T10:05:52.841Z,9.18
2023-05-18T10:07:24.980Z,9.55
2023-05-18T10:09:05.061Z,10.27
2023-05-18T10:10:39.614Z,11.63
2023-05-18T10:12:16.542Z,10.27
2023-05-18T10:13:56.659Z,11.27
2023-05-18T10:15:28.961Z,11.82
2023-05-18T10:17:14.881Z,10.90
2023-05-18T10:18:49.552Z,11.02
2023-05-18T10:20:29.604Z,11.88
2023-05-18T10:22:06.341Z,10.88
2023-05-18T10:23:41.207Z,11.23
2023-05-18T10:25:26.347Z,10.95
2023-05-18T10:27:02.100Z,13.20
2023-05-18T10:28:39.535Z,14.30
2023-05-18T10:30:13.221Z,13.15
2023-05-18T10:31:46.169Z,10.80
2023-05-18T10:33:28.292Z,11.30
2023-05-18T10:35:01.240Z,11.55
2023-05-18T10:36:34.737Z,11.80
2023-05-18T10:38:09.840Z,12.88
2023-05-18T10:39:45.945Z,12.60
2023-05-18T10:41:19.254Z,11.35
2023-05-18T10:44:25.198Z,8.52
2023-05-18T10:46:00.033Z,7.97
2023-05-18T10:47:34.173Z,7.75
2023-05-18T10:49:13.439Z,8.07
2023-05-18T10:50:45.839Z,8.32
2023-05-18T10:52:18.837Z,7.15
2023-05-18T10:53:51.991Z,7.72
2023-05-18T10:55:25.328Z,7.28
2023-05-18T10:56:57.460Z,8.27
2023-05-18T10:58:31.501Z,7.43
2023-05-18T11:00:05.269Z,7.88
2023-05-18T11:01:38.252Z,7.93
2023-05-18T11:03:15.229Z,7.28
2023-05-18T11:04:48.321Z,7.25
2023-05-18T11:06:24.882Z,6.78
2023-05-18T11:08:05.863Z,6.18
2023-05-18T11:09:38.059Z,7.65
2023-05-18T11:11:10.366Z,6.85
2023-05-18T11:12:42.755Z,6.22
2023-05-18T11:14:14.875Z,6.23
2023-05-18T11:15:56.125Z,6.10
2023-05-18T11:17:31.641Z,6.00
2023-05-18T11:19:07.972Z,5.38
2023-05-18T11:20:40.152Z,5.68
2023-05-18T11:22:13.064Z,5.47
2023-05-18T11:24:08.036Z,6.13
2023-05-18T11:25:41.226Z,6.18
2023-05-18T11:27:16.890Z,5.85
2023-05-18T11:28:52.894Z,6.82
2023-05-18T11:30:34.462Z,6.20
2023-05-18T11:32:30.189Z,7.50
2023-05-18T11:34:39.169Z,6.75
2023-05-18T11:36:14.059Z,6.25
2023-05-18T11:37:46.743Z,6.57
2023-05-18T11:39:25.529Z,6.28
2023-05-18T11:40:59.790Z,6.90
2023-05-18T11:42:37.639Z,5.63
2023-05-18T11:44:12.979Z,6.78
2023-05-18T11:45:59.555Z,7.00
2023-05-18T11:47:32.263Z,6.85
2023-05-18T11:49:16.839Z,7.45
2023-05-18T11:50:49.103Z,8.00
2023-05-18T11:52:25.453Z,6.45
2023-05-18T11:53:58.831Z,6.80
2023-05-18T11:57:12.146Z,6.20
2023-05-18T11:58:45.316Z,5.43
2023-05-18T12:00:17.923Z,6.65
2023-05-18T12:01:50.127Z,6.75
2023-05-18T12:03:28.124Z,8.63
2023-05-18T12:05:01.572Z,5.60
2023-05-18T12:08:06.015Z,4.88
2023-05-18T12:09:42.174Z,5.30
2023-05-18T12:11:15.538Z,5.50
2023-05-18T12:14:25.009Z,6.15
2023-05-18T12:15:59.000Z,6.10
2023-05-18T12:17:47.311Z,6.90
2023-05-18T12:19:23.936Z,5.85
2023-05-18T12:20:56.133Z,5.43
2023-05-18T12:22:28.333Z,5.22
2023-05-18T12:24:01.519Z,5.70
2023-05-18T12:25:34.014Z,4.82
2023-05-18T12:27:10.920Z,5.00
2023-05-18T12:28:43.090Z,6.15
2023-05-18T12:30:22.707Z,4.68
2023-05-18T12:33:36.681Z,5.05
2023-05-18T12:35:09.350Z,4.63
2023-05-18T12:36:44.057Z,3.78
2023-05-18T12:38:18.115Z,3.90
2023-05-18T12:39:54.407Z,3.67
2023-05-18T12:41:27.230Z,4.43
2023-05-18T12:43:00.567Z,3.90
2023-05-18T12:46:07.080Z,4.10
2023-05-18T12:47:42.043Z,3.92
2023-05-18T12:49:14.211Z,3.92
2023-05-18T12:50:47.768Z,4.07
2023-05-18T12:52:22.172Z,3.90
2023-05-18T12:53:54.323Z,3.97
2023-05-18T12:55:26.944Z,4.13
2023-05-18T12:57:02.682Z,4.40
2023-05-18T12:58:34.959Z,4.43
2023-05-18T13:00:11.049Z,4.32
2023-05-18T13:03:17.020Z,4.43
2023-05-18T13:05:02.823Z,4.30
2023-05-18T13:06:38.386Z,4.03
2023-05-18T13:08:22.404Z,4.10
2023-05-18T13:09:57.166Z,3.67
2023-05-18T13:11:30.523Z,3.88
2023-05-18T13:14:38.956Z,3.70
2023-05-18T13:16:17.589Z,3.88
2023-05-18T13:17:58.371Z,3.60
2023-05-18T13:19:31.937Z,3.95
2023-05-18T13:21:07.916Z,4.18
2023-05-18T13:22:40.065Z,3.70
2023-05-18T13:24:12.242Z,3.88
2023-05-18T13:25:44.961Z,3.40
2023-05-18T13:27:17.129Z,3.70
2023-05-18T13:28:52.095Z,4.20
2023-05-18T13:30:24.642Z,4.40
2023-05-18T13:31:56.862Z,4.00
2023-05-18T13:33:31.798Z,3.38
2023-05-18T13:35:05.344Z,3.70
2023-05-18T13:36:37.517Z,4.00
2023-05-18T13:38:10.993Z,4.03
2023-05-18T13:39:43.165Z,4.35
2023-05-18T13:41:15.540Z,3.70
2023-05-18T13:42:48.240Z,4.43
2023-05-18T13:44:20.480Z,3.67
2023-05-18T13:45:52.704Z,3.55
2023-05-18T13:47:24.877Z,4.35
2023-05-18T13:48:57.013Z,4.45
2023-05-18T13:50:29.282Z,4.07
2023-05-18T13:52:01.632Z,4.40
2023-05-18T13:53:33.792Z,4.95
2023-05-18T13:55:08.662Z,3.97
2023-05-18T13:56:41.679Z,3.90
2023-05-18T13:58:13.825Z,4.13
2023-05-18T13:59:46.448Z,6.38
2023-05-18T14:01:18.612Z,4.20
2023-05-18T14:02:51.601Z,4.82
2023-05-18T14:04:23.806Z,5.05
2023-05-18T14:05:56.031Z,5.93
2023-05-18T14:07:28.149Z,4.57
2023-05-18T14:09:00.296Z,4.30
2023-05-18T14:10:32.602Z,3.80
2023-05-18T14:12:06.232Z,3.43
2023-05-18T14:13:38.454Z,3.20
2023-05-18T14:15:12.133Z,3.10
2023-05-18T14:16:44.306Z,3.72
2023-05-18T14:18:19.231Z,4.18
2023-05-18T14:19:51.388Z,3.53
2023-05-18T14:21:23.669Z,3.00
2023-05-18T14:22:56.104Z,2.60
2023-05-18T14:24:28.563Z,2.60
2023-05-18T14:26:00.683Z,3.00
2023-05-18T14:27:32.846Z,2.60
2023-05-18T14:30:43.824Z,2.70
2023-05-18T14:32:16.125Z,3.20
2023-05-18T14:33:48.761Z,3.38
2023-05-18T14:35:20.936Z,2.70
2023-05-18T14:36:53.787Z,3.10
2023-05-18T14:38:27.369Z,3.45
2023-05-18T14:39:59.469Z,3.35
2023-05-18T14:41:31.720Z,3.33
2023-05-18T14:43:03.908Z,3.13
2023-05-18T14:44:36.239Z,3.42
2023-05-18T14:46:09.149Z,3.45
2023-05-18T14:47:41.422Z,2.97
2023-05-18T14:49:13.715Z,2.53
2023-05-18T14:50:45.987Z,3.17
2023-05-18T14:52:18.124Z,2.67
2023-05-18T14:53:50.225Z,3.22
2023-05-18T14:55:22.458Z,4.40
2023-05-18T14:56:54.702Z,3.72
2023-05-18T14:58:26.833Z,3.88
2023-05-18T14:59:59.039Z,3.40
2023-05-18T15:01:31.254Z,3.70
2023-05-18T15:03:03.998Z,2.70
2023-05-18T15:04:36.527Z,2.63
2023-05-18T15:06:08.660Z,2.80
2023-05-18T15:07:41.136Z,2.85
2023-05-18T15:09:13.451Z,3.93
2023-05-18T15:10:45.596Z,3.05
2023-05-18T15:12:18.185Z,3.63
2023-05-18T15:13:50.629Z,3.15
2023-05-18T15:15:24.164Z,3.00
2023-05-18T15:16:59.068Z,2.50
2023-05-18T15:18:31.248Z,2.60
2023-05-18T15:20:04.143Z,2.40
2023-05-18T15:21:38.569Z,2.88
2023-05-18T15:23:11.361Z,2.80
2023-05-18T15:24:43.519Z,2.70
2023-05-18T15:26:15.848Z,2.80
2023-05-18T15:27:49.426Z,2.53
2023-05-18T15:29:22.076Z,2.70
2023-05-18T15:30:54.927Z,3.00
2023-05-18T15:32:29.223Z,3.00
2023-05-18T15:34:02.064Z,2.72
2023-05-18T15:35:35.276Z,3.22
2023-05-18T15:37:07.454Z,2.65
2023-05-18T15:38:39.700Z,3.33
2023-05-18T15:40:12.286Z,3.05
2023-05-18T15:41:44.398Z,2.47
2023-05-18T15:43:16.563Z,3.42
2023-05-18T15:44:49.166Z,3.63
2023-05-18T15:46:21.545Z,4.15
2023-05-18T15:47:53.795Z,3.70
2023-05-18T15:49:25.948Z,3.97
2023-05-18T15:50:58.274Z,3.90
2023-05-18T15:52:30.434Z,4.10
2023-05-18T15:54:02.673Z,3.88
2023-05-18T15:55:34.800Z,4.38
2023-05-18T15:57:07.787Z,4.05
2023-05-18T15:58:40.164Z,4.80
2023-05-18T16:00:14.231Z,5.07
2023-05-18T16:01:46.541Z,4.72
2023-05-18T16:03:19.659Z,4.95
2023-05-18T16:04:52.055Z,5.30
2023-05-18T16:06:24.313Z,5.50
2023-05-18T16:07:56.563Z,6.70
2023-05-18T16:09:28.941Z,5.30
2023-05-18T16:11:02.757Z,6.07
2023-05-18T16:12:34.899Z,5.68
2023-05-18T16:14:07.116Z,4.63
2023-05-18T16:15:39.253Z,4.03
2023-05-18T16:17:11.559Z,3.97
2023-05-18T16:18:43.754Z,4.18
2023-05-18T16:20:18.119Z,4.10
2023-05-18T16:21:50.372Z,4.40
2023-05-18T16:23:22.534Z,4.15
2023-05-18T16:24:55.238Z,4.18
2023-05-18T16:26:27.434Z,4.10
2023-05-18T16:27:59.560Z,4.20
2023-05-18T16:29:31.793Z,4.38
2023-05-18T16:31:11.537Z,4.57
2023-05-18T16:34:16.458Z,4.63
2023-05-18T16:35:48.551Z,4.32
2023-05-18T16:37:20.737Z,4.60
2023-05-18T16:38:53.752Z,4.85
2023-05-18T16:40:26.034Z,4.97
2023-05-18T16:41:58.181Z,4.25
2023-05-18T16:43:30.322Z,4.47
2023-05-18T16:45:02.650Z,4.28
2023-05-18T16:46:34.893Z,4.97
2023-05-18T16:48:07.371Z,4.68
2023-05-18T16:49:39.657Z,5.50
2023-05-18T16:51:11.966Z,5.80
2023-05-18T16:52:44.165Z,6.40
2023-05-18T16:54:16.374Z,5.57
2023-05-18T16:55:48.873Z,5.60
2023-05-18T16:57:21.542Z,5.57
2023-05-18T16:58:54.205Z,5.80
2023-05-18T17:00:26.523Z,5.47
2023-05-18T17:01:58.754Z,5.22
2023-05-18T17:03:34.852Z,5.88
2023-05-18T17:05:08.801Z,8.18
2023-05-18T17:06:40.936Z,10.13
2023-05-18T17:08:13.262Z,7.55
2023-05-18T17:09:45.413Z,8.20
2023-05-18T17:11:17.544Z,8.27
2023-05-18T17:12:49.812Z,7.47
2023-05-18T17:14:22.061Z,7.78
2023-05-18T17:15:54.271Z,6.13
2023-05-18T17:17:26.653Z,5.13
2023-05-18T17:18:58.979Z,4.10
2023-05-18T17:20:31.291Z,4.78
2023-05-18T17:22:05.057Z,4.83
2023-05-18T17:23:37.327Z,4.72
2023-05-18T17:25:09.808Z,3.85
2023-05-18T17:26:41.988Z,4.00
2023-05-18T17:28:16.850Z,4.10
2023-05-18T17:29:49.013Z,4.10
2023-05-18T17:31:21.452Z,4.00
2023-05-18T17:32:55.126Z,3.90
2023-05-18T17:34:27.463Z,3.90
2023-05-18T17:35:59.606Z,4.07
2023-05-18T17:37:31.750Z,4.15
2023-05-18T17:39:04.869Z,3.58
2023-05-18T17:40:37.620Z,3.97
2023-05-18T17:43:42.557Z,4.18
2023-05-18T17:45:14.751Z,4.63
2023-05-18T17:46:47.200Z,4.35
2023-05-18T17:48:19.358Z,4.40
2023-05-18T17:49:51.526Z,4.03
2023-05-18T17:51:26.445Z,4.22
2023-05-18T17:52:59.108Z,4.68
2023-05-18T17:54:31.368Z,4.32
2023-05-18T17:56:03.662Z,4.53
2023-05-18T17:57:36.208Z,4.72
2023-05-18T17:59:08.626Z,5.13
2023-05-18T18:00:41.034Z,4.47
2023-05-18T18:02:14.689Z,5.18
2023-05-18T18:03:46.840Z,5.53
2023-05-18T18:05:19.116Z,5.50
2023-05-18T18:06:54.713Z,5.40
2023-05-18T18:08:28.630Z,4.65
2023-05-18T18:10:00.909Z,5.05
2023-05-18T18:11:33.218Z,4.70
2023-05-18T18:13:05.398Z,4.78
2023-05-18T18:14:37.558Z,6.78
2023-05-18T18:16:10.420Z,6.68
2023-05-18T18:17:42.890Z,6.25
2023-05-18T18:19:15.577Z,6.38
2023-05-18T18:20:47.812Z,5.53
2023-05-18T18:22:19.971Z,5.03
2023-05-18T18:23:52.205Z,4.90
2023-05-18T18:25:24.406Z,4.75
2023-05-18T18:26:56.664Z,4.32
2023-05-18T18:28:29.757Z,4.40
2023-05-18T18:30:02.152Z,4.57
2023-05-18T18:31:34.482Z,5.00
2023-05-18T18:33:06.816Z,5.07
2023-05-18T18:34:38.946Z,5.97
2023-05-18T18:36:11.372Z,5.60
2023-05-18T18:37:46.221Z,5.20
2023-05-18T18:39:18.450Z,4.93
2023-05-18T18:40:51.081Z,4.90
2023-05-18T18:42:23.280Z,5.82
2023-05-18T18:43:57.514Z,4.75
2023-05-18T18:45:31.272Z,4.60
2023-05-18T18:47:03.651Z,4.60
2023-05-18T18:48:36.001Z,4.88
2023-05-18T18:50:08.593Z,5.60
2023-05-18T18:51:40.938Z,5.25
2023-05-18T18:53:13.105Z,5.75
2023-05-18T18:54:45.564Z,5.90
2023-05-18T18:56:17.843Z,5.70
2023-05-18T18:57:50.187Z,4.90
2023-05-18T18:59:22.349Z,5.18
2023-05-18T19:00:54.581Z,5.43
2023-05-18T19:02:27.544Z,5.45
2023-05-18T19:03:59.798Z,6.13
2023-05-18T19:05:32.411Z,5.22
2023-05-18T19:07:05.273Z,4.15
2023-05-18T19:08:37.742Z,4.40
2023-05-18T19:10:10.645Z,4.23
2023-05-18T19:11:42.833Z,3.95
2023-05-18T19:13:15.143Z,3.80
2023-05-18T19:14:47.374Z,4.43
2023-05-18T19:16:19.671Z,3.78
2023-05-18T19:17:53.989Z,4.13
2023-05-18T19:19:29.217Z,4.32
2023-05-18T19:24:16.676Z,4.53
2023-05-18T19:25:48.976Z,4.03
2023-05-18T19:27:21.184Z,3.95
2023-05-18T19:28:53.361Z,3.50
2023-05-18T19:30:25.634Z,3.30
2023-05-18T19:31:58.037Z,4.40
2023-05-18T19:33:30.294Z,5.45
2023-05-18T19:35:02.539Z,4.22
2023-05-18T19:36:36.232Z,4.15
2023-05-18T19:38:08.478Z,5.53
2023-05-18T19:39:40.610Z,6.00
2023-05-18T19:41:13.163Z,6.90
2023-05-18T19:42:45.441Z,6.07
2023-05-18T19:44:17.659Z,5.82
2023-05-18T19:45:50.532Z,7.00
2023-05-18T19:47:23.085Z,6.80
2023-05-18T19:48:56.468Z,6.50
2023-05-18T19:50:29.055Z,6.03
2023-05-18T19:52:01.228Z,4.50
2023-05-18T19:53:33.884Z,5.18
2023-05-18T19:55:06.744Z,4.07
2023-05-18T19:56:39.004Z,4.18
2023-05-18T19:58:11.175Z,3.67
2023-05-18T19:59:43.740Z,3.67
2023-05-18T20:01:18.641Z,3.60
2023-05-18T20:02:50.939Z,3.92
2023-05-18T20:04:25.083Z,3.58
2023-05-18T20:05:57.425Z,4.05
2023-05-18T20:07:30.305Z,4.03
2023-05-18T20:09:02.491Z,3.60
2023-05-18T20:10:34.721Z,3.75
2023-05-18T20:12:07.120Z,4.40
2023-05-18T20:13:39.288Z,3.70
2023-05-18T20:15:11.707Z,4.75
2023-05-18T20:16:43.898Z,4.35
2023-05-18T20:18:16.802Z,4.70
2023-05-18T20:19:52.566Z,4.88
2023-05-18T20:21:24.826Z,4.70
2023-05-18T20:22:57.416Z,4.07
2023-05-18T20:24:29.863Z,4.63
2023-05-18T20:26:01.977Z,4.97
2023-05-18T20:27:34.287Z,4.35
2023-05-18T20:29:06.550Z,4.40
2023-05-18T20:30:38.684Z,3.70
2023-05-18T20:32:11.108Z,3.55
2023-05-18T20:33:44.830Z,3.40
2023-05-18T20:35:17.211Z,3.28
2023-05-18T20:36:49.519Z,3.90
2023-05-18T20:38:26.163Z,3.10
2023-05-18T20:39:58.426Z,3.58
2023-05-18T20:41:30.609Z,3.55
2023-05-18T20:43:04.476Z,3.70
2023-05-18T20:44:38.355Z,3.50
2023-05-18T20:46:13.921Z,3.50
2023-05-18T20:47:46.242Z,3.95
2023-05-18T20:49:18.581Z,4.15
2023-05-18T20:50:53.820Z,4.13
2023-05-18T20:52:26.608Z,4.07
2023-05-18T20:53:59.433Z,4.30
2023-05-18T20:57:04.669Z,4.20
2023-05-18T20:58:37.030Z,4.30
2023-05-18T21:00:09.726Z,4.68
2023-05-18T21:01:43.263Z,4.63
2023-05-18T21:03:15.919Z,4.60
2023-05-18T21:04:48.194Z,4.47
2023-05-18T21:06:20.349Z,4.28
2023-05-18T21:07:53.852Z,4.25
2023-05-18T21:09:26.096Z,3.65
2023-05-18T21:10:58.286Z,3.90
2023-05-18T21:12:30.570Z,4.00
2023-05-18T21:14:02.688Z,4.10
2023-05-18T21:15:37.982Z,4.72
2023-05-18T21:17:10.123Z,3.53